Terminal Aerodrome Forecast
Issued by NWS Paducah, KY

Home | Current Version | Previous Version | Graphics & Text | Print | Product List | Glossary On
Versions: 1 2 3 4 5 6 7 8 9 10 11 12 13 14 15 16 17 18 19 20 21 22
000
FTUS43 KPAH 271904 AAB
TAFPAH
TAF AMD
KPAH 271904Z 2719/2818 15010KT 3SM -TSRA SCT015CB BKN040
      TEMPO 2719/2721 VRB12G25KT 1SM TSRA BR OVC015CB
     FM280100 32004KT P6SM BKN035
     FM280700 34006KT 4SM BR OVC015
     FM281400 01007KT P6SM BKN020=

USA.gov is the U.S. government's official web portal to all federal, state and local government web resources and services.